createdAt,value
2022-07-27T00:03:42.403Z,100130.56
2022-07-27T00:09:11.725Z,100121.19
2022-07-27T00:14:43.156Z,100127.28
2022-07-27T00:20:13.219Z,100127.53
2022-07-27T00:25:42.448Z,100116.75
2022-07-27T00:31:13.119Z,100117.28
2022-07-27T00:36:42.250Z,100116.75
2022-07-27T00:42:08.882Z,100117.34
2022-07-27T00:47:35.514Z,100108.53
2022-07-27T00:53:06.052Z,100120.13
2022-07-27T00:58:30.868Z,100114.63
2022-07-27T01:04:00.445Z,100115.22
2022-07-27T01:09:44.588Z,100112.44
2022-07-27T01:15:13.948Z,100112.53
2022-07-27T01:20:42.650Z,100109.53
2022-07-27T01:26:12.803Z,100112.34
2022-07-27T01:31:41.808Z,100121.44
2022-07-27T01:37:10.500Z,100122.03
2022-07-27T01:42:40.731Z,100133.66
2022-07-27T01:48:10.789Z,100133.13
2022-07-27T01:53:39.442Z,100142.56
2022-07-27T01:59:16.813Z,100139.28
2022-07-27T02:04:41.729Z,100137.91
2022-07-27T02:10:11.132Z,100138.44
2022-07-27T02:15:43.136Z,100145.59
2022-07-27T02:21:13.628Z,100144.78
2022-07-27T02:26:43.032Z,100144.78
2022-07-27T02:32:11.121Z,100156.06
2022-07-27T02:37:40.761Z,100156.31
2022-07-27T02:43:09.341Z,100162.63
2022-07-27T02:48:40.127Z,100166.16
2022-07-27T02:54:09.431Z,100175.22
2022-07-27T02:59:39.821Z,100169.97
2022-07-27T03:05:05.646Z,100172.16
2022-07-27T03:10:34.233Z,100175.44
2022-07-27T03:15:58.270Z,100184.75
2022-07-27T03:21:28.655Z,100180.03
2022-07-27T03:26:57.688Z,100186.34
2022-07-27T03:32:23.058Z,100203.88
2022-07-27T03:37:53.758Z,100198.88
2022-07-27T03:43:16.987Z,100210.44
2022-07-27T03:48:40.998Z,100219.47
2022-07-27T03:54:06.610Z,100210.88
2022-07-27T03:59:32.461Z,100219.38
2022-07-27T04:04:56.341Z,100217.38
2022-07-27T04:10:31.568Z,100216.72
2022-07-27T04:15:57.915Z,100219.94
2022-07-27T04:21:28.227Z,100224.75
2022-07-27T04:27:05.040Z,100218.03
2022-07-27T04:32:34.360Z,100224.53
2022-07-27T04:38:03.098Z,100219.09
2022-07-27T04:43:33.491Z,100228.13
2022-07-27T04:49:02.449Z,100235.69
2022-07-27T04:54:31.480Z,100242.47
2022-07-27T05:00:01.517Z,100232.06
2022-07-27T05:05:30.701Z,100231.94
2022-07-27T05:10:58.989Z,100230.03
2022-07-27T05:16:30.508Z,100226.44
2022-07-27T05:21:59.450Z,100221.59
2022-07-27T05:27:28.702Z,100221.44
2022-07-27T05:32:55.869Z,100229.28
2022-07-27T05:38:23.902Z,100229.38
2022-07-27T05:43:55.504Z,100235.97
2022-07-27T05:49:22.693Z,100228.50
2022-07-27T05:54:51.193Z,100232.25
2022-07-27T06:00:20.741Z,100222.53
2022-07-27T06:05:51.257Z,100229.44
2022-07-27T06:11:20.087Z,100227.72
2022-07-27T06:16:49.590Z,100242.25
2022-07-27T06:22:19.607Z,100239.97
2022-07-27T06:27:48.980Z,100244.88
2022-07-27T06:33:18.430Z,100236.84
2022-07-27T06:38:43.614Z,100241.72
2022-07-27T06:44:12.174Z,100246.78
2022-07-27T06:49:35.909Z,100249.03
2022-07-27T06:55:01.090Z,100234.59
2022-07-27T07:00:29.060Z,100241.25
2022-07-27T07:05:54.891Z,100237.91
2022-07-27T07:11:21.104Z,100234.41
2022-07-27T07:16:50.717Z,100238.56
2022-07-27T07:22:14.538Z,100237.28
2022-07-27T07:27:44.733Z,100232.97
2022-07-27T07:33:14.250Z,100239.06
2022-07-27T07:38:41.655Z,100240.63
2022-07-27T07:44:11.296Z,100251.94
2022-07-27T07:49:39.880Z,100249.66
2022-07-27T07:55:10.340Z,100240.81
2022-07-27T08:00:44.199Z,100243.69
2022-07-27T08:06:13.513Z,100251.34
2022-07-27T08:11:42.600Z,100256.59
2022-07-27T08:17:12.908Z,100254.13
2022-07-27T08:22:37.182Z,100252.19
2022-07-27T08:28:04.820Z,100255.31
2022-07-27T08:33:33.786Z,100252.09
2022-07-27T08:39:08.737Z,100252.03
2022-07-27T08:44:41.018Z,100257.63
2022-07-27T08:50:24.382Z,100248.56
2022-07-27T08:55:53.730Z,100252.88
2022-07-27T09:01:23.539Z,100254.53
2022-07-27T09:06:53.344Z,100256.16
2022-07-27T09:12:28.883Z,100248.88
2022-07-27T09:17:53.062Z,100259.44
2022-07-27T09:23:28.495Z,100250.97
2022-07-27T09:28:55.927Z,100247.63
2022-07-27T09:34:30.493Z,100253.19
2022-07-27T09:40:25.475Z,100248.31
2022-07-27T09:45:51.342Z,100242.13
2022-07-27T09:51:58.373Z,100243.13
2022-07-27T09:57:09.636Z,100253.44
2022-07-27T10:02:38.846Z,100258.72
2022-07-27T10:08:09.016Z,100251.31
2022-07-27T10:13:43.587Z,100249.53
2022-07-27T10:19:17.272Z,100248.03
2022-07-27T10:24:59.980Z,100250.97
2022-07-27T10:30:30.761Z,100254.63
2022-07-27T10:35:54.330Z,100249.75
2022-07-27T10:41:26.286Z,100256.63
2022-07-27T10:46:54.763Z,100245.31
2022-07-27T10:52:42.034Z,100244.50
2022-07-27T10:58:46.298Z,100242.50
2022-07-27T11:04:14.869Z,100235.91
2022-07-27T11:15:27.601Z,100232.38
2022-07-27T11:20:52.465Z,100243.25
2022-07-27T11:26:17.139Z,100241.16
2022-07-27T11:31:58.301Z,100238.84
2022-07-27T11:37:29.541Z,100238.63
2022-07-27T11:42:56.953Z,100241.78
2022-07-27T11:48:35.015Z,100255.88
2022-07-27T11:54:21.982Z,100238.13
2022-07-27T11:59:46.701Z,100241.50
2022-07-27T12:05:12.339Z,100227.69
2022-07-27T12:10:58.258Z,100224.50
2022-07-27T12:16:27.474Z,100220.00
2022-07-27T12:21:55.728Z,100224.63
2022-07-27T12:27:27.529Z,100220.03
2022-07-27T12:32:56.370Z,100215.41
2022-07-27T12:38:25.733Z,100213.09
2022-07-27T12:44:07.878Z,100205.13
2022-07-27T12:49:40.819Z,100204.41
2022-07-27T12:55:15.707Z,100201.91
2022-07-27T13:00:42.597Z,100199.44
2022-07-27T13:06:13.166Z,100200.31
2022-07-27T13:11:46.202Z,100201.09
2022-07-27T13:17:18.756Z,100186.63
2022-07-27T13:22:48.571Z,100185.06
2022-07-27T13:28:17.022Z,100186.69
2022-07-27T13:33:46.732Z,100188.31
2022-07-27T13:39:16.369Z,100182.66
2022-07-27T13:45:03.883Z,100179.47
2022-07-27T13:50:32.612Z,100179.44
2022-07-27T13:56:03.082Z,100180.66
2022-07-27T14:01:29.304Z,100181.44
2022-07-27T14:07:00.364Z,100189.94
2022-07-27T14:12:25.022Z,100191.16
2022-07-27T14:17:54.704Z,100184.69
2022-07-27T14:23:29.806Z,100180.22
2022-07-27T14:28:56.822Z,100193.16
2022-07-27T14:34:19.151Z,100184.19
2022-07-27T14:39:49.894Z,100179.31
2022-07-27T14:45:16.514Z,100181.66
2022-07-27T14:50:40.230Z,100188.94
2022-07-27T14:56:05.674Z,100186.91
2022-07-27T15:01:35.405Z,100194.84
2022-07-27T15:06:59.907Z,100192.69
2022-07-27T15:12:26.725Z,100188.13
2022-07-27T15:17:56.793Z,100203.03
2022-07-27T15:23:26.598Z,100198.44
2022-07-27T15:28:56.653Z,100192.84
2022-07-27T15:34:25.229Z,100194.44
2022-07-27T15:39:47.981Z,100193.19
2022-07-27T15:45:18.882Z,100204.47
2022-07-27T15:50:45.612Z,100209.50
2022-07-27T15:56:14.153Z,100218.50
2022-07-27T16:01:45.052Z,100225.69
2022-07-27T16:07:11.265Z,100228.34
2022-07-27T16:12:41.733Z,100228.50
2022-07-27T16:18:11.844Z,100229.53
2022-07-27T16:23:42.093Z,100229.47
2022-07-27T16:29:08.895Z,100229.31
2022-07-27T16:34:40.092Z,100245.72
2022-07-27T16:40:10.377Z,100253.75
2022-07-27T16:45:34.069Z,100246.44
2022-07-27T16:51:05.083Z,100247.22
2022-07-27T16:56:30.031Z,100250.78
2022-07-27T17:01:59.288Z,100259.50
2022-07-27T17:07:30.205Z,100262.63
2022-07-27T17:13:00.131Z,100275.69
2022-07-27T17:18:24.210Z,100270.72
2022-07-27T17:23:49.479Z,100277.84
2022-07-27T17:29:18.323Z,100287.66
2022-07-27T17:34:47.980Z,100295.09
2022-07-27T17:40:16.047Z,100300.19
2022-07-27T17:45:45.469Z,100297.88
2022-07-27T17:51:14.394Z,100308.06
2022-07-27T17:56:45.173Z,100318.94
2022-07-27T18:02:09.697Z,100326.09
2022-07-27T18:07:40.310Z,100327.88
2022-07-27T18:13:11.475Z,100329.69
2022-07-27T18:18:42.537Z,100327.75
2022-07-27T18:24:10.519Z,100332.94
2022-07-27T18:29:36.273Z,100332.03
2022-07-27T18:35:03.502Z,100331.25
2022-07-27T18:40:33.236Z,100345.94
2022-07-27T18:46:04.996Z,100344.69
2022-07-27T18:51:34.477Z,100354.41
2022-07-27T18:57:01.706Z,100361.03
2022-07-27T19:02:28.048Z,100363.69
2022-07-27T19:07:59.217Z,100369.78
2022-07-27T19:13:27.325Z,100371.91
2022-07-27T19:18:57.732Z,100383.22
2022-07-27T19:24:26.421Z,100377.09
2022-07-27T19:29:56.558Z,100374.47
2022-07-27T19:35:21.511Z,100383.97
2022-07-27T19:40:50.228Z,100384.50
2022-07-27T19:46:20.237Z,100390.06
2022-07-27T19:51:45.880Z,100391.06
2022-07-27T19:57:15.475Z,100392.00
2022-07-27T20:02:45.206Z,100388.19
2022-07-27T20:08:13.178Z,100398.09
2022-07-27T20:13:36.791Z,100387.28
2022-07-27T20:19:01.816Z,100389.81
2022-07-27T20:24:27.723Z,100409.38
2022-07-27T20:29:50.841Z,100401.78
2022-07-27T20:35:20.337Z,100412.75
2022-07-27T20:40:50.711Z,100408.72
2022-07-27T20:46:20.189Z,100410.09
2022-07-27T20:51:43.865Z,100403.84
2022-07-27T20:57:12.847Z,100415.75
2022-07-27T21:02:36.649Z,100419.03
2022-07-27T21:08:07.165Z,100417.78
2022-07-27T21:13:35.861Z,100421.69
2022-07-27T21:19:01.847Z,100430.47
2022-07-27T21:24:29.976Z,100434.88
2022-07-27T21:30:00.345Z,100431.28
2022-07-27T21:35:25.709Z,100436.63
2022-07-27T21:40:52.752Z,100436.31
2022-07-27T21:46:20.830Z,100439.38
2022-07-27T21:51:50.323Z,100442.72
2022-07-27T21:57:18.871Z,100439.53
2022-07-27T22:02:50.246Z,100444.63
2022-07-27T22:08:19.101Z,100433.03
2022-07-27T22:13:48.475Z,100444.31
2022-07-27T22:19:18.433Z,100442.44
2022-07-27T22:24:47.326Z,100443.03
2022-07-27T22:30:16.859Z,100453.28
2022-07-27T22:35:47.508Z,100454.69
2022-07-27T22:41:16.256Z,100465.84
2022-07-27T22:46:45.134Z,100467.41
2022-07-27T22:52:15.680Z,100467.31
2022-07-27T22:57:45.383Z,100482.28
2022-07-27T23:03:14.470Z,100465.69
2022-07-27T23:08:44.622Z,100480.63
2022-07-27T23:14:14.729Z,100475.19
2022-07-27T23:19:44.248Z,100480.63
2022-07-27T23:25:14.702Z,100487.22
2022-07-27T23:30:44.813Z,100480.47
2022-07-27T23:36:14.061Z,100477.69
2022-07-27T23:41:49.375Z,100482.13
2022-07-27T23:47:19.304Z,100489.00
2022-07-27T23:52:47.997Z,100492.34
2022-07-27T23:58:18.461Z,100502.38
